Time;durP1;ratioP1;P1;durP2;ratioP2;P2;SDS_P1;SDS_P2;PMS_P1;PMS_P2;Temp;Humidity;BMP_temperature;BMP_pressure;BME280_temperature;BME280_humidity;BME280_pressure;Samples;Min_cycle;Max_cycle;Signal;HPM_P1;HPM_P2
2023/07/03 05:50:00;;;;;;;18.00;4.60;;;;;;;;;;10528716;28;20491;-80
2023/07/03 05:55:01;;;;;;;17.63;5.18;;;;;;;;;;10511104;28;20027;-80
2023/07/03 06:05:38;;;;;;;9.93;3.67;;;;;;;;;;2505385;23;20002;-86
2023/07/03 06:11:06;;;;;;;17.75;4.68;;;;;;;;;;10499157;28;20053;-86
2023/07/03 06:17:04;;;;;;;18.77;4.85;;;;;;;;;;10366153;28;20036;-86
2023/07/03 06:22:29;;;;;;;14.27;4.40;;;;;;;;;;10269359;28;20027;-86
2023/07/03 06:28:12;;;;;;;11.02;4.05;;;;;;;;;;10285661;28;20039;-86
2023/07/03 06:39:36;;;;;;;13.95;5.43;;;;;;;;;;10211505;28;20079;-86
2023/07/03 06:44:37;;;;;;;11.32;4.00;;;;;;;;;;10236956;28;20039;-86
2023/07/03 06:49:38;;;;;;;13.82;3.72;;;;;;;;;;10437140;28;20028;-86
2023/07/03 06:54:39;;;;;;;12.48;4.15;;;;;;;;;;10473700;28;20106;-86
2023/07/03 06:59:40;;;;;;;16.77;5.00;;;;;;;;;;10456215;28;20118;-86
2023/07/03 07:04:42;;;;;;;14.20;4.18;;;;;;;;;;10447414;28;20032;-86
2023/07/03 07:10:02;;;;;;;5.68;2.72;;;;;;;;;;10447095;28;20498;-88
2023/07/03 07:15:04;;;;;;;8.90;3.30;;;;;;;;;;10446156;28;20033;-89
2023/07/03 07:20:06;;;;;;;8.23;3.15;;;;;;;;;;10445380;28;20495;-87
2023/07/03 07:25:07;;;;;;;11.15;4.22;;;;;;;;;;10447060;28;20033;-86
2023/07/03 07:30:09;;;;;;;10.88;4.15;;;;;;;;;;10445648;28;20036;-86
2023/07/03 07:41:02;;;;;;;12.75;4.75;;;;;;;;;;10465084;28;20475;-86
2023/07/03 07:46:13;;;;;;;13.55;4.40;;;;;;;;;;10455873;28;20060;-83
2023/07/03 07:51:27;;;;;;;14.02;4.28;;;;;;;;;;10452666;28;20081;-84
2023/07/03 07:56:31;;;;;;;13.80;4.25;;;;;;;;;;10474802;28;20436;-84
2023/07/03 08:01:43;;;;;;;10.10;3.90;;;;;;;;;;10451761;28;20086;-86
2023/07/03 08:06:44;;;;;;;9.80;4.40;;;;;;;;;;10445864;28;20098;-86
2023/07/03 08:11:45;;;;;;;9.20;4.13;;;;;;;;;;10446353;28;20172;-86
2023/07/03 08:16:46;;;;;;;8.85;3.95;;;;;;;;;;10450747;28;20062;-86
2023/07/03 08:21:48;;;;;;;9.93;4.40;;;;;;;;;;10450089;28;20107;-85
2023/07/03 08:26:50;;;;;;;10.70;4.10;;;;;;;;;;10465578;28;20376;-86
2023/07/03 08:31:51;;;;;;;9.43;4.20;;;;;;;;;;10448638;28;20043;-85
2023/07/03 08:36:53;;;;;;;8.75;4.40;;;;;;;;;;10446634;28;20048;-86
2023/07/03 08:42:16;;;;;;;10.73;4.28;;;;;;;;;;10450732;28;20037;-86
2023/07/03 08:47:27;;;;;;;10.38;3.83;;;;;;;;;;10465479;28;20059;-86
2023/07/03 08:52:36;;;;;;;10.60;3.83;;;;;;;;;;10446858;28;20442;-86
2023/07/03 08:57:45;;;;;;;9.52;3.83;;;;;;;;;;10463836;28;20060;-87
2023/07/03 09:02:58;;;;;;;10.68;3.63;;;;;;;;;;10442032;28;20418;-87
2023/07/03 09:08:13;;;;;;;9.02;3.40;;;;;;;;;;10441472;28;20467;-86
2023/07/03 09:13:14;;;;;;;9.73;3.50;;;;;;;;;;10467527;28;20049;-86
2023/07/03 09:18:18;;;;;;;10.15;3.70;;;;;;;;;;10441479;28;20037;-87
2023/07/03 09:29:11;;;;;;;8.18;3.40;;;;;;;;;;10350366;28;20029;-87
2023/07/03 09:34:18;;;;;;;8.77;3.63;;;;;;;;;;10441948;28;20035;-86
2023/07/03 09:39:19;;;;;;;10.80;4.15;;;;;;;;;;10446227;28;20120;-86
2023/07/03 09:44:22;;;;;;;8.20;3.15;;;;;;;;;;10444177;28;20037;-87
2023/07/03 09:49:28;;;;;;;11.57;4.22;;;;;;;;;;10439279;28;20086;-87
2023/07/03 09:54:42;;;;;;;9.45;3.63;;;;;;;;;;10439333;28;20029;-88
2023/07/03 09:59:46;;;;;;;7.13;3.58;;;;;;;;;;10442111;28;20036;-88
2023/07/03 10:04:47;;;;;;;9.10;3.20;;;;;;;;;;10441953;28;20064;-87
2023/07/03 10:10:07;;;;;;;8.52;4.18;;;;;;;;;;10448110;28;20432;-86
2023/07/03 10:15:55;;;;;;;10.82;3.90;;;;;;;;;;10472198;28;20040;-87
2023/07/03 10:21:22;;;;;;;7.47;3.67;;;;;;;;;;10466148;28;20029;-87
2023/07/03 10:26:32;;;;;;;8.02;4.00;;;;;;;;;;10447708;28;20586;-87
2023/07/03 10:31:41;;;;;;;8.57;4.03;;;;;;;;;;10478433;28;20045;-87
2023/07/03 10:36:49;;;;;;;9.70;3.90;;;;;;;;;;10468451;28;20059;-87
2023/07/03 10:42:35;;;;;;;8.63;3.28;;;;;;;;;;10319983;28;20110;-85
2023/07/03 10:47:55;;;;;;;10.68;3.78;;;;;;;;;;10249212;29;20039;-87
2023/07/03 10:53:25;;;;;;;8.23;2.90;;;;;;;;;;10261455;29;20042;-87
2023/07/03 10:58:55;;;;;;;12.00;3.28;;;;;;;;;;10290103;28;20496;-87
2023/07/03 11:04:16;;;;;;;11.60;5.03;;;;;;;;;;10277123;28;20138;-88
2023/07/03 11:09:42;;;;;;;7.90;3.60;;;;;;;;;;10356170;28;20037;-87
2023/07/03 11:14:56;;;;;;;8.13;3.40;;;;;;;;;;10453698;28;20085;-88
2023/07/03 11:20:36;;;;;;;9.85;3.72;;;;;;;;;;10411634;28;20035;-89
2023/07/03 11:26:33;;;;;;;7.03;3.30;;;;;;;;;;10295839;28;20058;-87
2023/07/03 11:37:44;;;;;;;8.02;3.45;;;;;;;;;;10433756;28;20025;-88
2023/07/03 11:43:08;;;;;;;7.72;3.42;;;;;;;;;;10448136;28;20421;-88
2023/07/03 11:48:37;;;;;;;7.93;2.97;;;;;;;;;;10444950;28;20037;-88
2023/07/03 11:54:13;;;;;;;10.32;3.30;;;;;;;;;;10447356;28;20116;-88
2023/07/03 12:04:52;;;;;;;8.52;3.58;;;;;;;;;;10474820;22;20053;-81
2023/07/03 12:09:53;;;;;;;7.43;3.45;;;;;;;;;;10460077;28;20048;-81
2023/07/03 12:15:00;;;;;;;8.48;3.17;;;;;;;;;;10459199;28;20056;-84
2023/07/03 12:20:07;;;;;;;8.82;3.53;;;;;;;;;;10457431;28;20123;-82
2023/07/03 12:25:10;;;;;;;8.25;3.63;;;;;;;;;;10457457;28;20036;-81
2023/07/03 12:30:12;;;;;;;11.43;3.65;;;;;;;;;;10458945;28;20513;-81
2023/07/03 12:35:15;;;;;;;6.22;3.10;;;;;;;;;;10456603;28;20090;-81
2023/07/03 12:40:17;;;;;;;9.90;3.40;;;;;;;;;;10458049;28;20033;-80
2023/07/03 12:45:19;;;;;;;7.47;3.67;;;;;;;;;;10474262;28;20024;-82
2023/07/03 12:50:20;;;;;;;7.80;3.15;;;;;;;;;;10467593;28;20036;-81
2023/07/03 12:55:21;;;;;;;8.88;3.88;;;;;;;;;;10471262;28;20067;-81
2023/07/03 13:00:30;;;;;;;6.80;3.17;;;;;;;;;;10455429;28;20098;-82
2023/07/03 13:05:36;;;;;;;9.57;3.60;;;;;;;;;;10454558;28;20076;-81
2023/07/03 13:10:37;;;;;;;7.22;3.50;;;;;;;;;;10458165;28;20029;-81
2023/07/03 13:15:39;;;;;;;7.22;2.90;;;;;;;;;;10460276;28;20122;-81
2023/07/03 13:20:41;;;;;;;12.27;3.63;;;;;;;;;;10453374;28;20403;-81
2023/07/03 13:25:49;;;;;;;10.77;4.07;;;;;;;;;;10453117;28;20123;-81
2023/07/03 13:31:04;;;;;;;10.52;3.33;;;;;;;;;;10455137;28;20036;-81
2023/07/03 13:36:27;;;;;;;7.40;3.30;;;;;;;;;;10459552;28;20033;-81
2023/07/03 13:41:28;;;;;;;8.63;3.15;;;;;;;;;;10458714;28;20041;-82
2023/07/03 13:46:29;;;;;;;6.95;2.83;;;;;;;;;;10456834;28;20095;-82
2023/07/03 13:51:31;;;;;;;6.35;2.60;;;;;;;;;;10463739;28;20164;-80
2023/07/03 13:56:36;;;;;;;7.25;3.10;;;;;;;;;;10466949;28;20069;-81
2023/07/03 14:01:38;;;;;;;7.60;3.35;;;;;;;;;;10490465;28;20100;-80
2023/07/03 14:06:39;;;;;;;7.05;2.88;;;;;;;;;;10478123;28;20136;-81
2023/07/03 14:11:40;;;;;;;7.43;2.92;;;;;;;;;;10475401;28;20079;-81
2023/07/03 14:16:41;;;;;;;6.55;3.10;;;;;;;;;;10467425;28;20048;-81
2023/07/03 14:21:42;;;;;;;8.07;2.97;;;;;;;;;;10463474;28;20141;-82
2023/07/03 14:26:43;;;;;;;7.60;3.03;;;;;;;;;;10462972;28;20041;-82
2023/07/03 14:31:44;;;;;;;8.18;3.58;;;;;;;;;;10462765;28;20021;-82
2023/07/03 14:36:45;;;;;;;10.73;5.75;;;;;;;;;;10462183;28;20475;-84
2023/07/03 14:41:46;;;;;;;6.82;3.25;;;;;;;;;;10464765;28;20037;-82
2023/07/03 14:46:47;;;;;;;8.05;3.78;;;;;;;;;;10465543;28;20061;-81
2023/07/03 14:51:48;;;;;;;7.28;3.67;;;;;;;;;;10463809;28;20064;-83
2023/07/03 14:56:49;;;;;;;7.18;3.08;;;;;;;;;;10466785;28;20055;-85
2023/07/03 15:01:50;;;;;;;7.28;3.47;;;;;;;;;;10459020;28;20048;-83
2023/07/03 15:06:51;;;;;;;7.07;3.28;;;;;;;;;;10469640;28;20050;-82
2023/07/03 15:11:53;;;;;;;9.45;3.78;;;;;;;;;;10456620;28;20041;-82
2023/07/03 15:16:54;;;;;;;7.95;3.55;;;;;;;;;;10457050;28;20124;-81
2023/07/03 15:21:55;;;;;;;8.88;3.88;;;;;;;;;;10454532;28;20091;-83
2023/07/03 15:26:56;;;;;;;9.85;4.03;;;;;;;;;;10456932;28;20113;-83
2023/07/03 15:31:57;;;;;;;7.40;3.80;;;;;;;;;;10460216;28;20025;-85
2023/07/03 15:36:58;;;;;;;10.63;4.45;;;;;;;;;;10460623;28;20037;-84
2023/07/03 15:42:00;;;;;;;13.88;4.47;;;;;;;;;;10459715;28;20040;-84
2023/07/03 15:47:04;;;;;;;10.63;4.70;;;;;;;;;;10462621;28;20055;-84
2023/07/03 15:52:05;;;;;;;8.43;4.45;;;;;;;;;;10463485;28;20043;-86
2023/07/03 15:57:06;;;;;;;11.57;4.55;;;;;;;;;;10465650;28;20045;-82
2023/07/03 16:02:08;;;;;;;8.27;4.18;;;;;;;;;;10485008;28;20045;-83
2023/07/03 16:07:09;;;;;;;10.55;4.68;;;;;;;;;;10465602;28;20033;-83
2023/07/03 16:12:16;;;;;;;8.93;4.30;;;;;;;;;;10458099;28;20128;-84
2023/07/03 16:17:20;;;;;;;7.95;4.50;;;;;;;;;;10458468;28;20029;-83
2023/07/03 16:22:28;;;;;;;9.38;5.00;;;;;;;;;;10454718;28;20037;-83
2023/07/03 16:27:30;;;;;;;8.25;4.40;;;;;;;;;;10455708;28;20033;-83
2023/07/03 16:32:31;;;;;;;8.52;5.20;;;;;;;;;;10439374;28;20033;-84
2023/07/03 16:37:33;;;;;;;7.72;4.43;;;;;;;;;;10475113;28;20095;-83
2023/07/03 16:42:34;;;;;;;10.02;4.93;;;;;;;;;;10453376;28;20040;-80
2023/07/03 16:47:36;;;;;;;9.48;4.38;;;;;;;;;;10453884;28;20033;-83
2023/07/03 16:52:37;;;;;;;10.18;4.60;;;;;;;;;;10459385;28;20033;-85
2023/07/03 16:57:38;;;;;;;10.23;5.00;;;;;;;;;;10462757;28;20446;-84
2023/07/03 17:02:39;;;;;;;9.82;4.57;;;;;;;;;;10462573;28;20092;-84
2023/07/03 17:07:40;;;;;;;10.98;4.72;;;;;;;;;;10458693;28;20459;-84
2023/07/03 17:12:41;;;;;;;11.05;4.93;;;;;;;;;;10460615;28;20037;-85
2023/07/03 17:17:42;;;;;;;10.63;5.40;;;;;;;;;;10461251;28;20100;-84
2023/07/03 17:22:43;;;;;;;10.85;4.53;;;;;;;;;;10460104;28;20068;-84
2023/07/03 17:27:44;;;;;;;12.25;5.70;;;;;;;;;;10461153;28;20068;-84
2023/07/03 17:32:45;;;;;;;10.43;5.22;;;;;;;;;;10460457;28;20057;-84
2023/07/03 17:37:47;;;;;;;12.27;4.90;;;;;;;;;;10463265;28;20194;-85
2023/07/03 17:42:48;;;;;;;10.32;4.47;;;;;;;;;;10464630;28;20044;-85
2023/07/03 17:47:49;;;;;;;9.57;4.57;;;;;;;;;;10461813;28;20060;-86
2023/07/03 17:52:50;;;;;;;9.40;4.95;;;;;;;;;;10464578;28;20033;-85
2023/07/03 17:57:53;;;;;;;10.57;4.50;;;;;;;;;;10471705;28;20029;-86
2023/07/03 18:02:54;;;;;;;9.00;4.60;;;;;;;;;;10479322;22;20057;-86
2023/07/03 18:07:55;;;;;;;10.02;5.25;;;;;;;;;;10442512;28;20033;-86
2023/07/03 18:12:57;;;;;;;10.60;5.00;;;;;;;;;;10440738;28;20542;-87
2023/07/03 18:17:58;;;;;;;8.60;4.63;;;;;;;;;;10438813;28;20025;-87
2023/07/03 18:22:59;;;;;;;12.65;5.13;;;;;;;;;;10457224;28;20043;-87
2023/07/03 18:28:00;;;;;;;9.75;4.93;;;;;;;;;;10441372;28;20132;-87
2023/07/03 18:33:01;;;;;;;9.85;4.60;;;;;;;;;;10439993;28;20036;-87
2023/07/03 18:38:04;;;;;;;8.77;4.53;;;;;;;;;;10439438;28;20048;-87
2023/07/03 18:43:05;;;;;;;11.02;4.88;;;;;;;;;;10441280;28;20033;-88
2023/07/03 18:48:06;;;;;;;10.32;4.78;;;;;;;;;;10438863;28;20064;-87
2023/07/03 18:53:07;;;;;;;17.85;5.20;;;;;;;;;;10439315;28;20128;-87
2023/07/03 18:58:08;;;;;;;12.48;5.32;;;;;;;;;;10452975;28;20040;-88
2023/07/03 19:03:09;;;;;;;8.45;4.78;;;;;;;;;;10454201;28;20148;-87
2023/07/03 19:08:10;;;;;;;10.45;4.85;;;;;;;;;;10445632;28;20033;-87
2023/07/03 19:13:11;;;;;;;9.95;5.10;;;;;;;;;;10446813;28;20468;-87
